»·PEaware :: N829SV KRDD-KTRK

N829SV :: KRDD-KTRK

FLIGHT INFORMATION

Flight Status: Arrived
Operator: Privately registered:
United States
More flights under this callsign
Pilot: Artic T. (36245)
Aircraft: CESSNA 208 CARAVAN
(C208)
More flights by this aircraft type
Origin: KRDD Redding Mun
United States
Destination: KTRK Truckee-Tahoe
United States
More flights between these airports :: More routes between these airports
Route: RBL V332 POSUE
File this flight plan on PilotEdge
Remarks: New to PE
Altitude:
(Current/Filed)
9,500ft
Speed:
(Current/Filed)
175kts
Departed: 31-Aug-21 07:54 PM
Arrived: 31-Aug-21 08:43 PM
Distance/Time
Traveled:
122nm/0:48
Distance/Time
To Go:
Arrived

Flight Plot

Page will automatically refresh every two minutes.

Flight plan parsing failed; only flown route is shown


Map Options




Map Legend


Flown Route
Filed Route
Departure Airport
Arrival Airport
Navaid (VOR, NDB)
Fix

Horizontal Profiles

Position Reports

Time Latitude Longitude Heading Altitude Ground
Speed
31-Aug-21 19:42 40.509644 -122.298278 181 506ft 0kts
31-Aug-21 19:43 40.509644 -122.298278 181 506ft 0kts
31-Aug-21 19:44 40.509644 -122.298278 181 506ft 0kts
31-Aug-21 19:45 40.509644 -122.298278 181 506ft 0kts
31-Aug-21 19:46 40.509644 -122.298278 181 506ft 0kts
31-Aug-21 19:47 40.509735 -122.298211 330 506ft 6kts
31-Aug-21 19:48 40.512341 -122.298501 6 507ft 15kts
31-Aug-21 19:49 40.516380 -122.296445 38 510ft 16kts
31-Aug-21 19:50 40.520122 -122.296134 42 513ft 8kts
31-Aug-21 19:51 40.520222 -122.295920 74 513ft 0kts
31-Aug-21 19:52 40.519877 -122.294876 183 512ft 0kts
31-Aug-21 19:53 40.501296 -122.295086 176 723ft 128kts
31-Aug-21 19:54 40.466652 -122.273018 142 1484ft 153kts
31-Aug-21 19:55 40.427938 -122.250865 176 2283ft 154kts
31-Aug-21 19:56 40.385158 -122.249523 180 3137ft 151kts
31-Aug-21 19:57 40.344055 -122.247408 178 4130ft 146kts
31-Aug-21 19:58 40.303514 -122.245842 179 5132ft 145kts
31-Aug-21 19:59 40.263212 -122.243744 178 6134ft 144kts
31-Aug-21 20:00 40.222976 -122.242060 178 7138ft 144kts
31-Aug-21 20:01 40.182629 -122.240149 179 8140ft 146kts
31-Aug-21 20:02 40.140600 -122.238527 187 8830ft 159kts
31-Aug-21 20:03 40.101450 -122.232644 180 9328ft 162kts
31-Aug-21 20:04 40.062507 -122.219548 132 9833ft 170kts
31-Aug-21 20:05 40.034577 -122.167127 126 10086ft 181kts
31-Aug-21 20:06 39.999780 -122.119271 142 10112ft 183kts
31-Aug-21 20:07 39.961600 -122.075288 141 10122ft 183kts
31-Aug-21 20:08 39.923597 -122.030771 141 10121ft 183kts
31-Aug-21 20:09 39.885548 -121.986461 141 10122ft 183kts
31-Aug-21 20:10 39.847803 -121.942326 141 10122ft 182kts
31-Aug-21 20:11 39.809897 -121.898139 141 10122ft 182kts
31-Aug-21 20:12 39.772120 -121.854183 142 10121ft 182kts
31-Aug-21 20:13 39.734510 -121.810418 142 10125ft 181kts
31-Aug-21 20:14 39.696786 -121.766596 142 10129ft 181kts
31-Aug-21 20:15 39.659156 -121.722910 142 10135ft 181kts
31-Aug-21 20:16 39.621487 -121.679157 142 10140ft 181kts
31-Aug-21 20:17 39.583823 -121.635606 142 10148ft 181kts
31-Aug-21 20:18 39.546404 -121.592299 143 10154ft 181kts
31-Aug-21 20:19 39.508793 -121.548792 142 10154ft 181kts
31-Aug-21 20:20 39.487980 -121.490110 102 10154ft 191kts
31-Aug-21 20:21 39.481648 -121.421234 100 10155ft 193kts
31-Aug-21 20:22 39.476012 -121.351878 99 10159ft 194kts
31-Aug-21 20:23 39.470506 -121.282531 99 10157ft 194kts
31-Aug-21 20:24 39.465251 -121.213238 99 10149ft 192kts
31-Aug-21 20:25 39.460063 -121.144470 99 10160ft 192kts
31-Aug-21 20:26 39.455041 -121.074999 99 10181ft 195kts
31-Aug-21 20:28 39.448160 -121.005629 102 10172ft 195kts
31-Aug-21 20:29 39.440876 -120.936125 102 10165ft 195kts
31-Aug-21 20:30 39.433422 -120.866645 102 10180ft 196kts
31-Aug-21 20:31 39.425872 -120.797638 102 10142ft 191kts
31-Aug-21 20:32 39.417138 -120.728966 106 10185ft 194kts
31-Aug-21 20:33 39.406278 -120.660666 106 10179ft 195kts
31-Aug-21 20:34 39.396387 -120.591259 106 10161ft 195kts
31-Aug-21 20:35 39.384382 -120.522636 107 10176ft 196kts
31-Aug-21 20:36 39.367466 -120.458316 107 10178ft 194kts
31-Aug-21 20:37 39.357230 -120.389641 103 10178ft 195kts
31-Aug-21 20:38 39.348508 -120.322398 103 9819ft 191kts
31-Aug-21 20:39 39.339432 -120.254987 103 8901ft 183kts
31-Aug-21 20:40 39.330398 -120.192698 109 7534ft 170kts
31-Aug-21 20:41 39.309446 -120.144937 130 6765ft 148kts
31-Aug-21 20:42 39.308895 -120.118454 308 6247ft 110kts
31-Aug-21 20:43 39.319672 -120.141319 295 5902ft 24kts
31-Aug-21 20:44 39.318868 -120.143793 215 5902ft 0kts
31-Aug-21 20:45 39.318868 -120.143793 215 5902ft 0kts
31-Aug-21 20:46 39.318868 -120.143793 215 5902ft 0kts

Navigation Log

Ident Type
Flight plan parsing failed, navigation log unavailable